CMB56 MUGM-KJAX
Flight info
| Callsign | CMB56 |
|---|---|
| Flight time | N/A |
| Altitude | 32000 |
| Route | GTMOD7 BYGON DCT ACMEE/N0476F340 DCT HODGY DCT OCTAL DCT ORL/N0470F350 DCT HAINY QUBEN2 |
| Aircraft | B762/H-SDE2E3FGHIRWXY/LB1 |
Departure
| Time | N/A |
|---|---|
| Airport | Leeward Point Field (MUGM) |
Arrival
| Time | 2026-05-03 20:47 |
|---|---|
| Airport | Jacksonville International Airport (KJAX) |
| Time | Latitude | Longitude | Altitude | Speed | Heading |
|---|---|---|---|---|---|
| 2026-05-03 20:15 | 28.12653 | -81.13399 | 31962 ft | 448 kts | 336° |
| 2026-05-03 20:15 | 28.18390 | -81.16158 | 31962 ft | 448 kts | 336° |
| 2026-05-03 20:16 | 28.24127 | -81.18919 | 31971 ft | 448 kts | 336° |
| 2026-05-03 20:16 | 28.29870 | -81.21687 | 31972 ft | 449 kts | 336° |
| 2026-05-03 20:17 | 28.35568 | -81.24437 | 31620 ft | 438 kts | 336° |
| 2026-05-03 20:17 | 28.38330 | -81.25771 | 30860 ft | 439 kts | 336° |
| 2026-05-03 20:17 | 28.41159 | -81.27138 | 29891 ft | 444 kts | 336° |
| 2026-05-03 20:17 | 28.44006 | -81.28515 | 28849 ft | 450 kts | 336° |
| 2026-05-03 20:18 | 28.46912 | -81.29920 | 27704 ft | 457 kts | 336° |
| 2026-05-03 20:18 | 28.49852 | -81.31344 | 26508 ft | 463 kts | 336° |
| 2026-05-03 20:18 | 28.52863 | -81.32704 | 25258 ft | 471 kts | 341° |
| 2026-05-03 20:18 | 28.56052 | -81.33600 | 24436 ft | 471 kts | 349° |
| 2026-05-03 20:19 | 28.59289 | -81.33947 | 24253 ft | 474 kts | 355° |
| 2026-05-03 20:19 | 28.62550 | -81.34124 | 24135 ft | 475 kts | 355° |
| 2026-05-03 20:19 | 28.65839 | -81.34300 | 24008 ft | 472 kts | 355° |
| 2026-05-03 20:19 | 28.69116 | -81.34486 | 23967 ft | 471 kts | 355° |
| 2026-05-03 20:20 | 28.72381 | -81.34685 | 23966 ft | 470 kts | 355° |
| 2026-05-03 20:20 | 28.75644 | -81.34893 | 23954 ft | 470 kts | 355° |
| 2026-05-03 20:20 | 28.78357 | -81.35071 | 23952 ft | 470 kts | 355° |
| 2026-05-03 20:20 | 28.81637 | -81.35288 | 23949 ft | 470 kts | 355° |
| 2026-05-03 20:21 | 28.84899 | -81.35504 | 23957 ft | 470 kts | 355° |
| 2026-05-03 20:21 | 28.88120 | -81.35716 | 23953 ft | 470 kts | 355° |
| 2026-05-03 20:21 | 28.91380 | -81.35931 | 23955 ft | 469 kts | 355° |
| 2026-05-03 20:21 | 28.94637 | -81.36145 | 23950 ft | 469 kts | 355° |
| 2026-05-03 20:22 | 28.97900 | -81.36360 | 23955 ft | 469 kts | 355° |
| 2026-05-03 20:22 | 29.01170 | -81.36579 | 23589 ft | 472 kts | 355° |
| 2026-05-03 20:22 | 29.04432 | -81.36801 | 23185 ft | 466 kts | 355° |
| 2026-05-03 20:22 | 29.07645 | -81.37021 | 22767 ft | 459 kts | 354° |
| 2026-05-03 20:23 | 29.10821 | -81.37242 | 22369 ft | 457 kts | 354° |
| 2026-05-03 20:23 | 29.13999 | -81.37462 | 21965 ft | 456 kts | 355° |
| 2026-05-03 20:23 | 29.17108 | -81.37677 | 21575 ft | 453 kts | 355° |
| 2026-05-03 20:23 | 29.20248 | -81.37895 | 21162 ft | 450 kts | 355° |
| 2026-05-03 20:24 | 29.23363 | -81.38110 | 20777 ft | 448 kts | 355° |
| 2026-05-03 20:24 | 29.26457 | -81.38323 | 20388 ft | 445 kts | 355° |
| 2026-05-03 20:24 | 29.29546 | -81.38534 | 19993 ft | 442 kts | 355° |
| 2026-05-03 20:24 | 29.32611 | -81.38741 | 19600 ft | 439 kts | 355° |
| 2026-05-03 20:25 | 29.35641 | -81.38944 | 19223 ft | 432 kts | 355° |
| 2026-05-03 20:25 | 29.38614 | -81.39141 | 18652 ft | 425 kts | 355° |
| 2026-05-03 20:25 | 29.41550 | -81.39335 | 17987 ft | 420 kts | 355° |
| 2026-05-03 20:25 | 29.44418 | -81.39529 | 17256 ft | 417 kts | 355° |
| 2026-05-03 20:26 | 29.47305 | -81.39726 | 16532 ft | 414 kts | 355° |
| 2026-05-03 20:26 | 29.50177 | -81.39921 | 15843 ft | 410 kts | 355° |
| 2026-05-03 20:26 | 29.52990 | -81.40176 | 15546 ft | 398 kts | 349° |
| 2026-05-03 20:26 | 29.55591 | -81.41110 | 15298 ft | 394 kts | 333° |
| 2026-05-03 20:27 | 29.57958 | -81.42738 | 15066 ft | 400 kts | 321° |
| 2026-05-03 20:27 | 29.59999 | -81.44924 | 14840 ft | 401 kts | 313° |
| 2026-05-03 20:27 | 29.61907 | -81.47244 | 14595 ft | 398 kts | 313° |
| 2026-05-03 20:27 | 29.63783 | -81.49515 | 14350 ft | 396 kts | 313° |
| 2026-05-03 20:28 | 29.65696 | -81.51789 | 14124 ft | 395 kts | 313° |
| 2026-05-03 20:28 | 29.67612 | -81.54041 | 13898 ft | 394 kts | 314° |
| 2026-05-03 20:28 | 29.69535 | -81.56277 | 13671 ft | 393 kts | 314° |
| 2026-05-03 20:28 | 29.71458 | -81.58494 | 13439 ft | 392 kts | 314° |
| 2026-05-03 20:29 | 29.73387 | -81.60713 | 13213 ft | 391 kts | 314° |
| 2026-05-03 20:29 | 29.75371 | -81.62851 | 12975 ft | 392 kts | 321° |
| 2026-05-03 20:29 | 29.77739 | -81.64389 | 12866 ft | 395 kts | 336° |
| 2026-05-03 20:29 | 29.80327 | -81.65243 | 12816 ft | 387 kts | 349° |
| 2026-05-03 20:30 | 29.82948 | -81.65494 | 12818 ft | 371 kts | 354° |
| 2026-05-03 20:30 | 29.85479 | -81.65666 | 12799 ft | 355 kts | 354° |
| 2026-05-03 20:30 | 29.87886 | -81.65849 | 12797 ft | 341 kts | 354° |
| 2026-05-03 20:30 | 29.90228 | -81.66052 | 12813 ft | 339 kts | 353° |
| 2026-05-03 20:31 | 29.92551 | -81.66261 | 12806 ft | 339 kts | 353° |
| 2026-05-03 20:31 | 29.94905 | -81.66507 | 12804 ft | 328 kts | 351° |
| 2026-05-03 20:31 | 29.97115 | -81.66863 | 12794 ft | 313 kts | 349° |
| 2026-05-03 20:31 | 29.99211 | -81.67264 | 12795 ft | 299 kts | 348° |
| 2026-05-03 20:32 | 30.01222 | -81.67677 | 12787 ft | 287 kts | 347° |
| 2026-05-03 20:32 | 30.03144 | -81.68083 | 12791 ft | 276 kts | 347° |
| 2026-05-03 20:32 | 30.04986 | -81.68477 | 12792 ft | 270 kts | 347° |
| 2026-05-03 20:32 | 30.06861 | -81.68865 | 12818 ft | 281 kts | 347° |
| 2026-05-03 20:33 | 30.08805 | -81.69246 | 12823 ft | 289 kts | 348° |
| 2026-05-03 20:33 | 30.10792 | -81.69628 | 12818 ft | 291 kts | 348° |
| 2026-05-03 20:33 | 30.12790 | -81.70007 | 12805 ft | 290 kts | 348° |
| 2026-05-03 20:33 | 30.14778 | -81.70385 | 12805 ft | 289 kts | 348° |
| 2026-05-03 20:34 | 30.16757 | -81.70756 | 12801 ft | 288 kts | 348° |
| 2026-05-03 20:34 | 30.18715 | -81.71134 | 12803 ft | 287 kts | 348° |
| 2026-05-03 20:34 | 30.20663 | -81.71512 | 12804 ft | 287 kts | 348° |
| 2026-05-03 20:34 | 30.22607 | -81.71893 | 12804 ft | 287 kts | 348° |
| 2026-05-03 20:35 | 30.23201 | -81.72006 | 12807 ft | 286 kts | 348° |
| 2026-05-03 20:35 | 30.25073 | -81.72378 | 12814 ft | 287 kts | 348° |
| 2026-05-03 20:35 | 30.26985 | -81.72964 | 12785 ft | 284 kts | 328° |
| 2026-05-03 20:35 | 30.28378 | -81.74501 | 12731 ft | 277 kts | 298° |
| 2026-05-03 20:36 | 30.28841 | -81.76632 | 12472 ft | 276 kts | 266° |
| 2026-05-03 20:36 | 30.28296 | -81.78744 | 12114 ft | 279 kts | 245° |
| 2026-05-03 20:36 | 30.27405 | -81.80703 | 11792 ft | 279 kts | 243° |
| 2026-05-03 20:36 | 30.26683 | -81.82772 | 11437 ft | 277 kts | 264° |
| 2026-05-03 20:37 | 30.26963 | -81.84936 | 11140 ft | 275 kts | 296° |
| 2026-05-03 20:37 | 30.28131 | -81.86680 | 10869 ft | 275 kts | 312° |
| 2026-05-03 20:37 | 30.29466 | -81.88255 | 10548 ft | 275 kts | 313° |
| 2026-05-03 20:37 | 30.30815 | -81.89827 | 10221 ft | 275 kts | 313° |
| 2026-05-03 20:38 | 30.32168 | -81.91399 | 9911 ft | 275 kts | 313° |
| 2026-05-03 20:38 | 30.33492 | -81.92933 | 9634 ft | 273 kts | 313° |
| 2026-05-03 20:38 | 30.34858 | -81.94512 | 9337 ft | 273 kts | 313° |
| 2026-05-03 20:38 | 30.36182 | -81.96039 | 9061 ft | 272 kts | 313° |
| 2026-05-03 20:39 | 30.37519 | -81.97579 | 8780 ft | 271 kts | 313° |
| 2026-05-03 20:39 | 30.38854 | -81.99113 | 8496 ft | 270 kts | 314° |
| 2026-05-03 20:39 | 30.40429 | -82.00277 | 8151 ft | 275 kts | 343° |
| 2026-05-03 20:39 | 30.42339 | -82.00265 | 7842 ft | 281 kts | 16° |
| 2026-05-03 20:40 | 30.44052 | -81.99179 | 7594 ft | 282 kts | 33° |
| 2026-05-03 20:40 | 30.45662 | -81.97890 | 7327 ft | 280 kts | 33° |
| 2026-05-03 20:40 | 30.47258 | -81.96606 | 7122 ft | 276 kts | 33° |
| 2026-05-03 20:40 | 30.48785 | -81.95376 | 7056 ft | 267 kts | 33° |
| 2026-05-03 20:41 | 30.50276 | -81.94168 | 7010 ft | 255 kts | 33° |
| 2026-05-03 20:41 | 30.51679 | -81.93027 | 6943 ft | 241 kts | 33° |
| 2026-05-03 20:41 | 30.53026 | -81.91927 | 6737 ft | 231 kts | 33° |
| 2026-05-03 20:41 | 30.54328 | -81.90863 | 6351 ft | 226 kts | 33° |
| 2026-05-03 20:42 | 30.55603 | -81.89827 | 5904 ft | 225 kts | 33° |
| 2026-05-03 20:42 | 30.56876 | -81.88800 | 5280 ft | 229 kts | 33° |
| 2026-05-03 20:42 | 30.58230 | -81.87730 | 4655 ft | 231 kts | 33° |
| 2026-05-03 20:42 | 30.59551 | -81.86689 | 4020 ft | 233 kts | 39° |
| 2026-05-03 20:43 | 30.60460 | -81.85188 | 3437 ft | 227 kts | 79° |
| 2026-05-03 20:43 | 30.60316 | -81.83461 | 2951 ft | 212 kts | 121° |
| 2026-05-03 20:43 | 30.59442 | -81.82189 | 2703 ft | 196 kts | 133° |
| 2026-05-03 20:43 | 30.58547 | -81.81042 | 2335 ft | 188 kts | 141° |
| 2026-05-03 20:44 | 30.57464 | -81.80333 | 2173 ft | 165 kts | 162° |
| 2026-05-03 20:44 | 30.56458 | -81.79949 | 2072 ft | 145 kts | 149° |
| 2026-05-03 20:44 | 30.55755 | -81.79162 | 1817 ft | 139 kts | 122° |
| 2026-05-03 20:44 | 30.55182 | -81.78202 | 1666 ft | 150 kts | 129° |
| 2026-05-03 20:45 | 30.54501 | -81.77271 | 1534 ft | 156 kts | 132° |
| 2026-05-03 20:45 | 30.53794 | -81.76311 | 1354 ft | 159 kts | 131° |
| 2026-05-03 20:45 | 30.53091 | -81.75322 | 1164 ft | 157 kts | 130° |
| 2026-05-03 20:45 | 30.52393 | -81.74351 | 922 ft | 155 kts | 131° |
| 2026-05-03 20:46 | 30.51699 | -81.73424 | 752 ft | 151 kts | 131° |
| 2026-05-03 20:46 | 30.51023 | -81.72500 | 587 ft | 150 kts | 132° |
| 2026-05-03 20:46 | 30.50337 | -81.71582 | 421 ft | 151 kts | 132° |
| 2026-05-03 20:46 | 30.49655 | -81.70655 | 259 ft | 149 kts | 131° |
| 2026-05-03 20:47 | 30.48984 | -81.69761 | 48 ft | 143 kts | 131° |
| 2026-05-03 20:47 | 30.48409 | -81.68986 | 34 ft | 106 kts | 131° |
| 2026-05-03 20:47 | 30.48063 | -81.68526 | 32 ft | 45 kts | 131° |
| 2026-05-03 20:47 | 30.47966 | -81.68395 | 32 ft | 21 kts | 131° |
| 2026-05-03 20:48 | 30.47875 | -81.68261 | 32 ft | 17 kts | 104° |
| 2026-05-03 20:48 | 30.47923 | -81.68160 | 33 ft | 15 kts | 41° |
| 2026-05-03 20:48 | 30.48009 | -81.68161 | 33 ft | 14 kts | 310° |
| 2026-05-03 20:48 | 30.48072 | -81.68246 | 33 ft | 14 kts | 311° |
| 2026-05-03 20:49 | 30.48132 | -81.68327 | 33 ft | 13 kts | 311° |
| 2026-05-03 20:49 | 30.48190 | -81.68404 | 34 ft | 13 kts | 311° |
| 2026-05-03 20:49 | 30.48247 | -81.68482 | 34 ft | 12 kts | 308° |
| 2026-05-03 20:49 | 30.48305 | -81.68562 | 34 ft | 13 kts | 310° |
| 2026-05-03 20:50 | 30.48364 | -81.68641 | 33 ft | 13 kts | 309° |
| 2026-05-03 20:50 | 30.48425 | -81.68722 | 34 ft | 13 kts | 312° |
| 2026-05-03 20:50 | 30.48486 | -81.68806 | 34 ft | 15 kts | 311° |
| 2026-05-03 20:50 | 30.48554 | -81.68898 | 33 ft | 15 kts | 310° |
| 2026-05-03 20:51 | 30.48630 | -81.68999 | 34 ft | 18 kts | 310° |
| 2026-05-03 20:51 | 30.48709 | -81.69106 | 32 ft | 17 kts | 311° |
| 2026-05-03 20:51 | 30.48791 | -81.69215 | 33 ft | 19 kts | 311° |
| 2026-05-03 20:51 | 30.48873 | -81.69327 | 33 ft | 18 kts | 310° |
| 2026-05-03 20:52 | 30.48953 | -81.69434 | 33 ft | 17 kts | 310° |
| 2026-05-03 20:52 | 30.49031 | -81.69539 | 33 ft | 18 kts | 310° |
| 2026-05-03 20:52 | 30.49117 | -81.69655 | 33 ft | 19 kts | 310° |
| 2026-05-03 20:52 | 30.49203 | -81.69772 | 34 ft | 19 kts | 310° |
| 2026-05-03 20:53 | 30.49289 | -81.69889 | 34 ft | 19 kts | 310° |
| 2026-05-03 20:53 | 30.49273 | -81.70012 | 32 ft | 18 kts | 222° |
| 2026-05-03 20:53 | 30.49189 | -81.70103 | 33 ft | 15 kts | 240° |
| 2026-05-03 20:53 | 30.49169 | -81.70222 | 34 ft | 15 kts | 261° |
| 2026-05-03 20:54 | 30.49154 | -81.70338 | 34 ft | 14 kts | 261° |
| 2026-05-03 20:54 | 30.49165 | -81.70482 | 34 ft | 7 kts | 254° |
| 2026-05-03 20:54 | 30.49139 | -81.70456 | 34 ft | 7 kts | 94° |
| 2026-05-03 20:55 | 30.49141 | -81.70423 | 34 ft | 0 kts | 84° |